createdAt,value
2022-12-12T00:01:36.475Z,10.35
2022-12-12T00:04:05.622Z,9.32
2022-12-12T00:06:33.787Z,10.95
2022-12-12T00:09:02.121Z,7.47
2022-12-12T00:11:30.549Z,7.65
2022-12-12T00:13:58.465Z,7.13
2022-12-12T00:16:29.590Z,8.57
2022-12-12T00:18:57.680Z,9.57
2022-12-12T00:21:28.317Z,8.57
2022-12-12T00:23:57.273Z,10.15
2022-12-12T00:26:30.604Z,12.45
2022-12-12T00:28:59.978Z,5.47
2022-12-12T00:31:29.021Z,5.50
2022-12-12T00:33:57.148Z,9.50
2022-12-12T00:36:27.921Z,10.25
2022-12-12T00:38:55.919Z,7.60
2022-12-12T00:41:24.473Z,8.02
2022-12-12T00:43:52.411Z,9.82
2022-12-12T00:46:22.758Z,9.32
2022-12-12T00:48:53.708Z,9.95
2022-12-12T00:51:23.008Z,7.43
2022-12-12T00:53:51.730Z,7.03
2022-12-12T00:56:22.337Z,8.20
2022-12-12T00:58:51.323Z,11.15
2022-12-12T01:01:22.866Z,7.18
2022-12-12T01:03:51.144Z,10.38
2022-12-12T01:06:19.063Z,9.40
2022-12-12T01:08:47.178Z,6.30
2022-12-12T01:11:15.752Z,8.68
2022-12-12T01:13:44.185Z,8.52
2022-12-12T01:16:12.890Z,7.30
2022-12-12T01:18:41.588Z,10.82
2022-12-12T01:21:15.428Z,11.02
2022-12-12T01:23:43.283Z,8.90
2022-12-12T01:26:15.315Z,10.13
2022-12-12T01:28:44.140Z,9.02
2022-12-12T01:31:13.562Z,9.52
2022-12-12T01:33:46.494Z,7.97
2022-12-12T01:36:16.890Z,8.68
2022-12-12T01:38:47.079Z,11.98
2022-12-12T01:41:15.690Z,8.63
2022-12-12T01:43:43.761Z,15.93
2022-12-12T01:46:30.727Z,9.55
2022-12-12T01:49:24.761Z,11.73
2022-12-12T01:52:00.596Z,7.57
2022-12-12T01:54:34.162Z,10.63
2022-12-12T01:57:05.664Z,11.80
2022-12-12T01:59:34.843Z,10.27
2022-12-12T02:02:02.806Z,9.63
2022-12-12T02:04:31.115Z,8.00
2022-12-12T02:06:59.028Z,8.50
2022-12-12T02:09:27.649Z,8.80
2022-12-12T02:11:57.962Z,12.18
2022-12-12T02:14:25.720Z,8.80
2022-12-12T02:16:59.752Z,9.43
2022-12-12T02:19:43.088Z,8.05
2022-12-12T02:22:41.362Z,7.88
2022-12-12T02:27:55.417Z,10.70
2022-12-12T02:31:02.906Z,6.97
2022-12-12T02:33:48.693Z,9.27
2022-12-12T02:36:45.649Z,9.88
2022-12-12T02:39:38.368Z,7.78
2022-12-12T02:42:47.033Z,12.25
2022-12-12T02:45:26.063Z,11.35
2022-12-12T02:48:08.826Z,9.65
2022-12-12T02:50:39.129Z,12.25
2022-12-12T02:53:07.381Z,6.00
2022-12-12T02:55:36.712Z,12.88
2022-12-12T02:58:06.529Z,8.95
2022-12-12T03:00:44.280Z,8.55
2022-12-12T03:03:51.820Z,10.50
2022-12-12T03:06:54.041Z,9.75
2022-12-12T03:09:54.499Z,7.07
2022-12-12T03:12:49.230Z,11.80
2022-12-12T03:15:27.865Z,10.95
2022-12-12T03:18:10.399Z,7.80
2022-12-12T03:21:10.429Z,11.13
2022-12-12T03:23:42.288Z,6.80
2022-12-12T03:26:24.499Z,8.20
2022-12-12T03:29:10.181Z,8.52
2022-12-12T03:31:40.793Z,10.35
2022-12-12T03:34:17.267Z,8.65
2022-12-12T03:36:54.579Z,5.43
2022-12-12T03:39:32.291Z,12.88
2022-12-12T03:42:19.501Z,13.60
2022-12-12T03:45:02.841Z,8.65
2022-12-12T03:48:13.992Z,12.60
2022-12-12T03:50:45.889Z,11.40
2022-12-12T03:53:19.833Z,11.30
2022-12-12T03:56:04.035Z,9.55
2022-12-12T03:58:39.307Z,8.93
2022-12-12T04:01:11.176Z,14.30
2022-12-12T04:03:56.769Z,9.85
2022-12-12T04:06:36.656Z,10.27
2022-12-12T04:09:36.568Z,12.38
2022-12-12T04:12:57.545Z,9.88
2022-12-12T04:15:49.036Z,7.68
2022-12-12T04:18:27.052Z,8.85
2022-12-12T04:21:38.849Z,12.63
2022-12-12T04:24:12.665Z,9.23
2022-12-12T04:27:00.047Z,9.70
2022-12-12T04:29:38.672Z,9.20
2022-12-12T04:32:17.189Z,10.40
2022-12-12T04:34:47.883Z,6.93
2022-12-12T04:37:29.114Z,12.18
2022-12-12T04:40:01.045Z,10.02
2022-12-12T04:42:34.743Z,15.63
2022-12-12T04:45:25.549Z,10.43
2022-12-12T04:47:57.049Z,6.75
2022-12-12T04:50:27.457Z,12.48
2022-12-12T04:52:58.174Z,9.32
2022-12-12T04:55:38.591Z,11.73
2022-12-12T04:58:07.598Z,11.30
2022-12-12T05:00:43.965Z,11.77
2022-12-12T05:03:31.131Z,5.47
2022-12-12T05:06:02.849Z,12.73
2022-12-12T05:08:37.936Z,10.68
2022-12-12T05:11:08.061Z,6.43
2022-12-12T05:13:38.426Z,8.88
2022-12-12T05:16:25.006Z,5.78
2022-12-12T05:18:53.411Z,7.70
2022-12-12T05:21:21.334Z,6.68
2022-12-12T05:23:49.260Z,7.72
2022-12-12T05:26:23.081Z,6.57
2022-12-12T05:28:53.324Z,11.23
2022-12-12T05:31:21.658Z,8.63
2022-12-12T05:33:50.485Z,10.57
2022-12-12T05:36:18.870Z,4.85
2022-12-12T05:38:46.785Z,6.70
2022-12-12T05:41:15.894Z,6.53
2022-12-12T05:43:43.763Z,10.00
2022-12-12T05:46:11.798Z,6.43
2022-12-12T05:48:39.714Z,8.63
2022-12-12T05:51:07.647Z,9.35
2022-12-12T05:53:42.520Z,11.85
2022-12-12T05:56:12.789Z,9.65
2022-12-12T05:58:41.609Z,8.43
2022-12-12T06:01:10.123Z,9.93
2022-12-12T06:03:38.068Z,10.85
2022-12-12T06:06:06.281Z,6.82
2022-12-12T06:08:34.272Z,12.70
2022-12-12T06:11:07.208Z,7.95
2022-12-12T06:13:35.543Z,7.90
2022-12-12T06:16:10.017Z,9.02
2022-12-12T06:18:37.899Z,12.45
2022-12-12T06:21:10.799Z,5.22
2022-12-12T06:23:40.261Z,11.50
2022-12-12T06:26:10.477Z,9.07
2022-12-12T06:28:39.089Z,12.27
2022-12-12T06:31:11.856Z,9.18
2022-12-12T06:33:44.207Z,11.48
2022-12-12T06:36:24.517Z,10.57
2022-12-12T06:38:57.433Z,10.15
2022-12-12T06:41:26.647Z,9.18
2022-12-12T06:43:55.070Z,9.50
2022-12-12T06:46:26.316Z,10.98
2022-12-12T06:48:57.073Z,8.50
2022-12-12T06:51:27.828Z,11.20
2022-12-12T06:53:58.786Z,8.32
2022-12-12T06:56:27.716Z,10.55
2022-12-12T06:58:58.994Z,7.35
2022-12-12T07:01:27.025Z,10.13
2022-12-12T07:03:54.952Z,7.85
2022-12-12T07:06:23.746Z,7.60
2022-12-12T07:08:52.612Z,9.77
2022-12-12T07:11:24.459Z,10.82
2022-12-12T07:13:56.856Z,11.57
2022-12-12T07:16:24.941Z,10.32
2022-12-12T07:18:54.219Z,9.57
2022-12-12T07:21:22.526Z,9.82
2022-12-12T07:23:50.481Z,12.15
2022-12-12T07:26:21.246Z,10.95
2022-12-12T07:28:49.943Z,12.43
2022-12-12T07:31:21.472Z,14.15
2022-12-12T07:33:49.750Z,11.25
2022-12-12T07:36:18.023Z,11.95
2022-12-12T07:38:47.002Z,13.23
2022-12-12T07:41:17.941Z,14.32
2022-12-12T07:43:50.287Z,13.05
2022-12-12T07:46:23.792Z,9.20
2022-12-12T07:48:53.432Z,7.55
2022-12-12T07:51:21.578Z,10.13
2022-12-12T07:53:49.943Z,13.65
2022-12-12T07:56:18.960Z,12.90
2022-12-12T07:58:47.310Z,7.65
2022-12-12T08:01:21.074Z,14.30
2022-12-12T08:03:50.128Z,14.75
2022-12-12T08:06:20.066Z,11.90
2022-12-12T08:08:50.001Z,11.30
2022-12-12T08:11:20.680Z,11.80
2022-12-12T08:13:48.711Z,9.95
2022-12-12T08:16:25.332Z,13.43
2022-12-12T08:18:58.279Z,13.23
2022-12-12T08:21:27.412Z,14.05
2022-12-12T08:23:59.958Z,14.57
2022-12-12T08:26:29.147Z,10.68
2022-12-12T08:28:57.801Z,10.27
2022-12-12T08:31:26.139Z,9.05
2022-12-12T08:33:54.491Z,16.48
2022-12-12T08:36:25.569Z,16.95
2022-12-12T08:38:53.563Z,13.25
2022-12-12T08:41:21.593Z,13.00
2022-12-12T08:43:49.767Z,14.50
2022-12-12T08:46:18.968Z,12.95
2022-12-12T08:48:47.999Z,12.40
2022-12-12T08:51:16.764Z,11.05
2022-12-12T08:53:49.162Z,14.32
2022-12-12T08:56:18.502Z,13.00
2022-12-12T08:58:46.977Z,18.45
2022-12-12T09:01:22.431Z,21.70
2022-12-12T09:03:51.887Z,16.77
2022-12-12T09:06:20.498Z,18.75
2022-12-12T09:08:48.901Z,25.50
2022-12-12T09:11:17.478Z,16.88
2022-12-12T09:13:45.819Z,11.48
2022-12-12T09:16:15.287Z,20.13
2022-12-12T09:18:48.640Z,13.80
2022-12-12T09:21:18.291Z,12.70
2022-12-12T09:23:48.640Z,21.23
2022-12-12T09:26:18.167Z,14.35
2022-12-12T09:28:46.030Z,16.80
2022-12-12T09:31:14.634Z,16.92
2022-12-12T09:33:43.476Z,15.82
2022-12-12T09:36:15.307Z,19.92
2022-12-12T09:38:43.558Z,13.60
2022-12-12T09:41:14.305Z,20.20
2022-12-12T09:44:01.258Z,17.02
2022-12-12T09:46:37.946Z,16.10
2022-12-12T09:49:16.430Z,19.70
2022-12-12T09:51:48.252Z,21.23
2022-12-12T09:54:20.813Z,18.58
2022-12-12T09:57:13.170Z,16.55
2022-12-12T09:59:49.410Z,13.77
2022-12-12T10:02:41.660Z,12.85
2022-12-12T10:05:41.558Z,14.23
2022-12-12T10:08:21.770Z,12.05
2022-12-12T10:10:59.174Z,16.40
2022-12-12T10:13:30.348Z,19.03
2022-12-12T10:16:05.430Z,16.95
2022-12-12T10:18:40.218Z,17.77
2022-12-12T10:21:16.561Z,16.15
2022-12-12T10:24:05.353Z,15.70
2022-12-12T10:26:33.177Z,15.18
2022-12-12T10:29:11.550Z,10.27
2022-12-12T10:31:56.229Z,20.08
2022-12-12T10:35:09.753Z,21.02
2022-12-12T10:38:01.913Z,17.02
2022-12-12T10:40:44.052Z,16.02
2022-12-12T10:43:17.542Z,11.75
2022-12-12T10:46:04.097Z,19.23
2022-12-12T10:48:34.501Z,14.65
2022-12-12T10:51:12.202Z,10.68
2022-12-12T10:53:42.430Z,13.20
2022-12-12T10:56:11.580Z,10.95
2022-12-12T10:58:44.296Z,14.82
2022-12-12T11:01:28.187Z,17.98
2022-12-12T11:04:06.568Z,15.60
2022-12-12T11:06:40.944Z,12.80
2022-12-12T11:09:22.965Z,14.68
2022-12-12T11:12:02.987Z,15.35
2022-12-12T11:14:38.050Z,11.32
2022-12-12T11:17:29.327Z,21.60
2022-12-12T11:20:00.031Z,16.70
2022-12-12T11:22:31.656Z,17.25
2022-12-12T11:25:00.715Z,17.77
2022-12-12T11:27:37.840Z,17.33
2022-12-12T11:30:21.484Z,16.13
2022-12-12T11:32:52.445Z,24.02
2022-12-12T11:35:28.614Z,15.35
2022-12-12T11:38:37.858Z,19.40
2022-12-12T11:41:11.224Z,17.35
2022-12-12T11:43:55.276Z,21.05
2022-12-12T11:46:30.405Z,15.15
2022-12-12T11:49:05.405Z,17.52
2022-12-12T11:51:37.358Z,13.57
2022-12-12T11:54:28.237Z,23.05
2022-12-12T11:56:59.350Z,19.67
2022-12-12T11:59:40.389Z,17.42
2022-12-12T12:02:18.377Z,15.00
2022-12-12T12:04:58.451Z,20.73
2022-12-12T12:07:32.441Z,16.63
2022-12-12T12:10:22.530Z,21.08
2022-12-12T12:13:03.640Z,21.00
2022-12-12T12:15:51.510Z,15.75
2022-12-12T12:21:37.983Z,14.02
2022-12-12T12:24:32.538Z,22.50
2022-12-12T12:27:12.731Z,18.85
2022-12-12T12:30:06.354Z,12.70
2022-12-12T12:32:52.869Z,12.65
2022-12-12T12:35:23.511Z,22.88
2022-12-12T12:38:18.806Z,19.58
2022-12-12T12:41:09.150Z,19.58
2022-12-12T12:43:52.158Z,23.73
2022-12-12T12:46:38.367Z,16.38
2022-12-12T12:49:21.955Z,15.50
2022-12-12T12:51:59.048Z,14.70
2022-12-12T12:54:57.052Z,18.90
2022-12-12T12:57:36.673Z,18.92
2022-12-12T13:00:10.436Z,18.02
2022-12-12T13:03:06.528Z,21.92
2022-12-12T13:05:42.867Z,25.08
2022-12-12T13:08:26.888Z,15.93
2022-12-12T13:11:03.733Z,16.90
2022-12-12T13:13:36.248Z,21.15
2022-12-12T13:16:16.515Z,12.68
2022-12-12T13:18:48.076Z,19.92
2022-12-12T13:21:36.544Z,23.15
2022-12-12T13:24:17.431Z,21.40
2022-12-12T13:27:10.398Z,12.10
2022-12-12T13:29:50.966Z,17.60
2022-12-12T13:32:28.534Z,19.70
2022-12-12T13:35:03.489Z,24.20
2022-12-12T13:37:36.723Z,23.73
2022-12-12T13:40:07.496Z,23.25
2022-12-12T13:42:56.903Z,19.00
2022-12-12T13:45:36.613Z,20.40
2022-12-12T13:48:09.865Z,20.73
2022-12-12T13:50:37.731Z,21.75
2022-12-12T13:53:08.769Z,22.90
2022-12-12T13:55:38.611Z,17.77
2022-12-12T13:58:18.589Z,21.10
2022-12-12T14:00:47.168Z,20.77
2022-12-12T14:03:14.963Z,22.42
2022-12-12T14:05:45.924Z,20.40
2022-12-12T14:08:16.508Z,20.85
2022-12-12T14:10:50.354Z,20.08
2022-12-12T14:13:24.154Z,9.98
2022-12-12T14:15:58.031Z,16.45
2022-12-12T14:18:32.431Z,17.10
2022-12-12T14:21:10.558Z,17.85
2022-12-12T14:24:21.357Z,21.95
2022-12-12T14:26:49.773Z,18.30
2022-12-12T14:29:17.679Z,14.45
2022-12-12T14:32:04.256Z,19.23
2022-12-12T14:34:47.484Z,9.00
2022-12-12T14:37:51.615Z,11.88
2022-12-12T14:40:21.671Z,17.88
2022-12-12T14:43:18.618Z,14.45
2022-12-12T14:45:56.349Z,15.00
2022-12-12T14:48:34.736Z,18.05
2022-12-12T14:51:10.665Z,16.65
2022-12-12T14:53:38.593Z,19.77
2022-12-12T14:56:19.062Z,12.18
2022-12-12T14:58:57.168Z,17.95
2022-12-12T15:01:39.870Z,13.20
2022-12-12T15:04:11.228Z,17.60
2022-12-12T15:06:44.436Z,15.98
2022-12-12T15:09:25.088Z,12.82
2022-12-12T15:11:56.424Z,16.77
2022-12-12T15:14:27.880Z,17.88
2022-12-12T15:17:07.242Z,17.67
2022-12-12T15:19:42.244Z,15.77
2022-12-12T15:22:30.016Z,16.10
2022-12-12T15:25:02.072Z,20.00
2022-12-12T15:27:49.370Z,12.57
2022-12-12T15:30:30.567Z,15.77
2022-12-12T15:33:00.121Z,10.90
2022-12-12T15:35:28.889Z,17.35
2022-12-12T15:38:18.306Z,14.40
2022-12-12T15:40:51.483Z,19.25
2022-12-12T15:43:26.359Z,14.10
2022-12-12T15:46:02.862Z,18.45
2022-12-12T15:48:30.972Z,12.52
2022-12-12T15:51:07.202Z,14.98
2022-12-12T15:53:38.492Z,12.48
2022-12-12T15:56:06.269Z,11.68
2022-12-12T15:58:44.454Z,17.40
2022-12-12T16:01:20.113Z,10.65
2022-12-12T16:04:06.205Z,14.23
2022-12-12T16:06:46.179Z,14.07
2022-12-12T16:09:21.792Z,13.98
2022-12-12T16:11:55.961Z,11.05
2022-12-12T16:14:25.445Z,9.75
2022-12-12T16:16:58.114Z,6.18
2022-12-12T16:19:46.535Z,14.15
2022-12-12T16:22:35.900Z,11.82
2022-12-12T16:25:13.335Z,9.18
2022-12-12T16:27:41.196Z,12.05
2022-12-12T16:30:13.282Z,9.75
2022-12-12T16:32:42.086Z,8.10
2022-12-12T16:35:21.898Z,8.88
2022-12-12T16:37:51.516Z,9.05
2022-12-12T16:40:21.650Z,15.50
2022-12-12T16:42:59.843Z,15.32
2022-12-12T16:45:28.138Z,11.68
2022-12-12T16:47:59.865Z,16.92
2022-12-12T16:50:28.716Z,10.32
2022-12-12T16:53:00.091Z,17.13
2022-12-12T16:55:31.429Z,11.52
2022-12-12T16:57:59.300Z,11.48
2022-12-12T17:00:28.031Z,10.57
2022-12-12T17:02:56.747Z,12.25
2022-12-12T17:05:29.362Z,12.32
2022-12-12T17:07:57.237Z,10.80
2022-12-12T17:10:26.090Z,11.90
2022-12-12T17:12:56.839Z,12.00
2022-12-12T17:15:27.921Z,8.00
2022-12-12T17:17:57.076Z,7.88
2022-12-12T17:20:26.751Z,6.30
2022-12-12T17:22:55.184Z,7.85
2022-12-12T17:25:23.376Z,11.85
2022-12-12T17:27:52.576Z,9.60
2022-12-12T17:30:23.989Z,6.95
2022-12-12T17:35:40.640Z,6.15
2022-12-12T17:38:14.447Z,7.65
2022-12-12T17:40:50.749Z,10.48
2022-12-12T17:43:19.311Z,12.05
2022-12-12T17:45:58.010Z,8.45
2022-12-12T17:48:29.479Z,6.03
2022-12-12T17:51:03.202Z,5.95
2022-12-12T17:53:36.811Z,8.68
2022-12-12T17:56:12.760Z,5.28
2022-12-12T17:58:45.598Z,6.78
2022-12-12T18:01:34.661Z,9.95
2022-12-12T18:04:03.657Z,9.70
2022-12-12T18:06:35.035Z,11.02
2022-12-12T18:09:04.120Z,9.80
2022-12-12T18:11:35.896Z,9.85
2022-12-12T18:14:08.626Z,8.45
2022-12-12T18:16:39.074Z,8.75
2022-12-12T18:19:11.407Z,7.50
2022-12-12T18:22:03.266Z,10.38
2022-12-12T18:24:33.214Z,9.73
2022-12-12T18:27:05.839Z,5.70
2022-12-12T18:29:34.291Z,8.13
2022-12-12T18:32:05.188Z,11.35
2022-12-12T18:34:35.686Z,10.60
2022-12-12T18:37:11.059Z,13.25
2022-12-12T18:39:38.937Z,9.13
2022-12-12T18:42:07.095Z,12.02
2022-12-12T18:44:35.315Z,8.25
2022-12-12T18:47:03.211Z,11.00
2022-12-12T18:49:31.630Z,17.17
2022-12-12T18:52:00.412Z,6.05
2022-12-12T18:54:28.683Z,10.35
2022-12-12T18:56:57.285Z,9.95
2022-12-12T18:59:25.134Z,11.27
2022-12-12T19:01:56.061Z,12.35
2022-12-12T19:04:24.215Z,12.30
2022-12-12T19:06:56.330Z,13.25
2022-12-12T19:09:27.627Z,5.68
2022-12-12T19:12:01.881Z,9.18
2022-12-12T19:15:15.403Z,7.68
2022-12-12T19:17:26.243Z,7.57
2022-12-12T19:19:54.822Z,13.52
2022-12-12T19:25:15.121Z,10.25
2022-12-12T19:27:49.131Z,10.40
2022-12-12T19:30:17.508Z,6.57
2022-12-12T19:32:49.291Z,8.98
2022-12-12T19:35:17.461Z,13.50
2022-12-12T19:37:48.141Z,6.95
2022-12-12T19:40:18.184Z,8.02
2022-12-12T19:42:46.744Z,5.85
2022-12-12T19:45:18.032Z,11.50
2022-12-12T19:47:45.901Z,14.00
2022-12-12T19:50:13.996Z,9.25
2022-12-12T19:52:44.996Z,6.90
2022-12-12T19:55:12.789Z,9.75
2022-12-12T19:57:44.521Z,7.03
2022-12-12T20:00:15.142Z,7.30
2022-12-12T20:02:46.654Z,11.35
2022-12-12T20:05:14.664Z,8.23
2022-12-12T20:07:43.845Z,10.32
2022-12-12T20:10:12.218Z,12.25
2022-12-12T20:12:49.459Z,12.80
2022-12-12T20:15:22.896Z,9.90
2022-12-12T20:17:50.893Z,7.00
2022-12-12T20:20:18.848Z,6.60
2022-12-12T20:22:47.000Z,9.68
2022-12-12T20:25:15.317Z,7.03
2022-12-12T20:27:43.295Z,8.18
2022-12-12T20:30:12.923Z,12.63
2022-12-12T20:32:41.078Z,9.13
2022-12-12T20:35:09.408Z,6.43
2022-12-12T20:37:37.424Z,11.73
2022-12-12T20:40:07.291Z,12.93
2022-12-12T20:42:35.175Z,12.65
2022-12-12T20:45:03.635Z,11.57
2022-12-12T20:47:33.123Z,10.60
2022-12-12T20:50:01.404Z,8.70
2022-12-12T20:52:31.135Z,14.50
2022-12-12T20:54:59.121Z,14.15
2022-12-12T20:57:27.387Z,12.80
2022-12-12T20:59:55.215Z,13.88
2022-12-12T21:02:30.023Z,12.50
2022-12-12T21:04:58.252Z,10.38
2022-12-12T21:07:26.335Z,8.82
2022-12-12T21:09:54.212Z,13.40
2022-12-12T21:12:22.273Z,9.32
2022-12-12T21:14:50.319Z,9.45
2022-12-12T21:17:19.455Z,9.50
2022-12-12T21:19:47.670Z,8.30
2022-12-12T21:22:18.774Z,13.95
2022-12-12T21:24:46.714Z,6.78
2022-12-12T21:27:14.681Z,9.63
2022-12-12T21:29:42.704Z,10.57
2022-12-12T21:32:10.602Z,8.73
2022-12-12T21:34:41.773Z,9.77
2022-12-12T21:37:11.268Z,11.30
2022-12-12T21:39:39.118Z,11.88
2022-12-12T21:42:08.288Z,16.75
2022-12-12T21:44:45.369Z,12.35
2022-12-12T21:47:13.718Z,9.88
2022-12-12T21:49:41.654Z,7.90
2022-12-12T21:52:14.154Z,13.38
2022-12-12T21:54:42.014Z,11.68
2022-12-12T21:57:10.083Z,14.73
2022-12-12T21:59:38.907Z,13.50
2022-12-12T22:02:07.435Z,11.13
2022-12-12T22:04:35.924Z,13.88
2022-12-12T22:07:03.797Z,17.23
2022-12-12T22:09:31.708Z,17.73
2022-12-12T22:12:03.563Z,15.95
2022-12-12T22:14:34.105Z,12.70
2022-12-12T22:17:03.791Z,8.13
2022-12-12T22:19:31.829Z,12.68
2022-12-12T22:22:04.600Z,11.10
2022-12-12T22:24:32.710Z,10.00
2022-12-12T22:27:00.770Z,11.25
2022-12-12T22:29:28.771Z,16.08
2022-12-12T22:31:56.694Z,12.10
2022-12-12T22:34:24.876Z,11.68
2022-12-12T22:36:54.074Z,10.73
2022-12-12T22:39:27.386Z,10.80
2022-12-12T22:41:56.279Z,13.85
2022-12-12T22:44:27.294Z,15.48
2022-12-12T22:46:56.336Z,10.40
2022-12-12T22:49:26.681Z,14.98
2022-12-12T22:51:56.827Z,10.65
2022-12-12T22:54:25.739Z,12.48
2022-12-12T22:56:56.763Z,13.18
2022-12-12T22:59:25.182Z,8.65
2022-12-12T23:01:53.139Z,11.25
2022-12-12T23:04:21.306Z,10.73
2022-12-12T23:06:49.269Z,7.75
2022-12-12T23:09:20.680Z,10.93
2022-12-12T23:11:50.341Z,9.07
2022-12-12T23:14:21.914Z,9.93
2022-12-12T23:16:51.187Z,6.07
2022-12-12T23:19:21.546Z,5.43
2022-12-12T23:21:49.994Z,4.53
2022-12-12T23:24:18.031Z,8.32
2022-12-12T23:26:46.667Z,8.10
2022-12-12T23:29:17.194Z,7.78
2022-12-12T23:31:45.170Z,4.03
2022-12-12T23:34:21.021Z,5.57
2022-12-12T23:36:54.133Z,7.60
2022-12-12T23:39:23.371Z,4.38
2022-12-12T23:41:51.240Z,4.45
2022-12-12T23:44:20.680Z,4.70
2022-12-12T23:46:49.194Z,8.10
2022-12-12T23:49:22.552Z,9.88
2022-12-12T23:51:55.976Z,8.23
2022-12-12T23:54:35.390Z,7.38
2022-12-12T23:57:03.934Z,9.57
2022-12-12T23:59:31.707Z,8.93
